Time;durP1;ratioP1;P1;durP2;ratioP2;P2;SDS_P1;SDS_P2;PMS_P1;PMS_P2;Temp;Humidity;BMP_temperature;BMP_pressure;BME280_temperature;BME280_humidity;BME280_pressure;Samples;Min_cycle;Max_cycle;Signal;HPM_P1;HPM_P2
2022/02/12 00:00:32;;;;;;;9.23;4.33;;;-1.60;99.90;;;;;;5007563;28;20430;-81
2022/02/12 00:02:58;;;;;;;10.87;5.10;;;-1.50;99.90;;;;;;5000366;28;20088;-81
2022/02/12 00:05:25;;;;;;;12.90;6.53;;;-1.50;99.90;;;;;;4992098;28;20026;-81
2022/02/12 00:07:54;;;;;;;9.47;4.80;;;-1.50;99.90;;;;;;4991907;28;20057;-82
2022/02/12 00:10:20;;;;;;;11.80;6.13;;;-1.60;99.90;;;;;;5002658;28;20053;-82
2022/02/12 00:12:46;;;;;;;10.93;5.17;;;-1.50;99.90;;;;;;4993819;28;20033;-82
2022/02/12 00:15:12;;;;;;;8.30;5.47;;;-1.60;99.90;;;;;;5011030;28;20029;-80
2022/02/12 00:17:40;;;;;;;12.07;5.93;;;-1.60;99.90;;;;;;5011225;28;20025;-81
2022/02/12 00:20:06;;;;;;;12.03;6.60;;;-1.60;99.90;;;;;;5010893;28;20440;-81
2022/02/12 00:22:32;;;;;;;12.90;5.53;;;-1.60;99.90;;;;;;5011041;28;20026;-81
2022/02/12 00:24:58;;;;;;;9.93;5.53;;;-1.60;99.90;;;;;;5010773;28;20065;-82
2022/02/12 00:27:24;;;;;;;12.70;6.73;;;-1.70;99.90;;;;;;5012318;28;20022;-82
2022/02/12 00:29:49;;;;;;;9.97;5.47;;;-1.70;99.90;;;;;;5014510;28;20013;-82
2022/02/12 00:32:15;;;;;;;12.10;6.10;;;-1.70;99.90;;;;;;5014277;28;20074;-82
2022/02/12 00:34:41;;;;;;;12.80;6.30;;;-1.70;99.90;;;;;;5014105;28;20029;-82
2022/02/12 00:37:08;;;;;;;12.60;5.80;;;-1.70;99.90;;;;;;5014061;28;20041;-82
2022/02/12 00:39:33;;;;;;;8.07;5.17;;;-1.80;99.90;;;;;;5013821;28;20128;-82
2022/02/12 00:41:59;;;;;;;11.20;5.10;;;-1.80;99.90;;;;;;5013730;28;20077;-82
2022/02/12 00:44:24;;;;;;;13.07;6.53;;;-1.80;99.90;;;;;;5014035;28;20030;-81
2022/02/12 00:46:51;;;;;;;10.93;5.47;;;-1.80;99.90;;;;;;5013777;28;20532;-82
2022/02/12 00:49:17;;;;;;;11.20;5.43;;;-1.80;99.90;;;;;;5013917;28;20348;-81
2022/02/12 00:51:42;;;;;;;11.30;5.40;;;-1.80;99.90;;;;;;5014166;28;20022;-82
2022/02/12 00:54:08;;;;;;;12.73;6.77;;;-1.80;99.90;;;;;;4996546;28;20038;-82
2022/02/12 00:56:33;;;;;;;9.87;5.10;;;-1.80;99.90;;;;;;5013776;28;20030;-82
2022/02/12 00:58:59;;;;;;;13.03;5.90;;;-1.90;99.90;;;;;;4996226;28;20543;-82
2022/02/12 01:01:25;;;;;;;14.83;7.83;;;-1.90;99.90;;;;;;5007944;28;20105;-82
2022/02/12 01:03:51;;;;;;;16.80;6.67;;;-1.90;99.90;;;;;;4999067;28;20022;-80
2022/02/12 01:06:17;;;;;;;20.07;7.90;;;-1.90;99.90;;;;;;5003393;28;20469;-81
2022/02/12 01:08:42;;;;;;;16.93;8.10;;;-1.90;99.90;;;;;;5013958;28;20076;-81
2022/02/12 01:11:09;;;;;;;15.53;8.13;;;-1.90;99.90;;;;;;5013800;28;20706;-81
2022/02/12 01:13:35;;;;;;;17.03;8.60;;;-1.90;99.90;;;;;;5012646;28;20812;-81
2022/02/12 01:16:01;;;;;;;16.93;8.97;;;-2.00;99.90;;;;;;4995537;28;20029;-81
2022/02/12 01:18:26;;;;;;;17.63;9.43;;;-2.00;99.90;;;;;;5012883;28;20026;-81
2022/02/12 01:20:52;;;;;;;20.30;10.40;;;-1.90;99.90;;;;;;5013181;28;20445;-81
2022/02/12 01:23:17;;;;;;;17.03;9.73;;;-2.00;99.90;;;;;;5012927;28;20026;-81
2022/02/12 01:25:44;;;;;;;16.33;9.50;;;-2.00;99.90;;;;;;5013226;28;20049;-81
2022/02/12 01:28:09;;;;;;;17.53;8.30;;;-2.00;99.90;;;;;;5013146;28;20022;-81
2022/02/12 01:30:35;;;;;;;19.77;9.23;;;-2.00;99.90;;;;;;5013033;28;20092;-81
2022/02/12 01:33:01;;;;;;;15.90;8.33;;;-2.10;99.90;;;;;;5013016;28;20033;-81
2022/02/12 01:35:26;;;;;;;16.47;8.47;;;-2.10;99.90;;;;;;5012832;28;20022;-81
2022/02/12 01:37:52;;;;;;;12.37;6.47;;;-2.10;99.90;;;;;;5013043;28;20029;-81
2022/02/12 01:40:21;;;;;;;13.60;7.00;;;-2.10;99.90;;;;;;5012037;28;20651;-80
2022/02/12 01:42:48;;;;;;;13.20;6.20;;;-2.10;99.90;;;;;;5013070;28;20034;-81
2022/02/12 01:45:14;;;;;;;15.00;6.33;;;-2.10;99.90;;;;;;5012386;28;20049;-81
2022/02/12 01:47:40;;;;;;;11.27;6.07;;;-2.20;99.90;;;;;;5012601;28;20030;-81
2022/02/12 01:50:06;;;;;;;13.73;5.53;;;-2.20;99.90;;;;;;5012703;28;20022;-81
2022/02/12 01:52:32;;;;;;;11.27;5.63;;;-2.20;99.90;;;;;;5012555;28;20502;-81
2022/02/12 01:54:59;;;;;;;11.60;5.33;;;-2.30;99.90;;;;;;5012743;28;20030;-81
2022/02/12 01:57:25;;;;;;;9.07;5.13;;;-2.30;99.90;;;;;;5012002;28;20382;-81
2022/02/12 01:59:50;;;;;;;10.60;5.50;;;-2.30;99.90;;;;;;5012775;28;20026;-81
2022/02/12 02:02:16;;;;;;;8.53;5.03;;;-2.30;99.90;;;;;;4996240;28;20065;-82
2022/02/12 02:04:42;;;;;;;12.33;5.87;;;-2.40;99.90;;;;;;4993003;28;20035;-81
2022/02/12 02:07:10;;;;;;;8.77;4.60;;;-2.30;99.90;;;;;;4993149;28;20026;-81
2022/02/12 02:09:36;;;;;;;7.67;4.67;;;-2.30;99.90;;;;;;4993020;28;20030;-81
2022/02/12 02:12:03;;;;;;;8.47;4.87;;;-2.40;99.90;;;;;;5004624;28;20067;-81
2022/02/12 02:14:41;;;;;;;8.30;4.77;;;-2.40;99.90;;;;;;5012191;28;20112;-81
2022/02/12 02:17:09;;;;;;;10.23;4.47;;;-2.40;99.90;;;;;;5011791;28;20033;-81
2022/02/12 02:19:35;;;;;;;8.50;4.77;;;-2.40;99.90;;;;;;5011282;28;20088;-80
2022/02/12 02:22:02;;;;;;;9.63;4.60;;;-2.40;99.90;;;;;;4994215;28;20040;-81
2022/02/12 02:24:28;;;;;;;12.53;5.83;;;-2.50;99.90;;;;;;5011823;28;20040;-81
2022/02/12 02:27:11;;;;;;;13.37;4.77;;;-2.50;99.90;;;;;;5012002;28;20018;-81
2022/02/12 02:29:40;;;;;;;9.60;4.60;;;-2.50;99.90;;;;;;5011071;28;20471;-81
2022/02/12 02:32:07;;;;;;;13.43;6.20;;;-2.60;99.90;;;;;;5010496;28;20538;-81
2022/02/12 02:34:33;;;;;;;8.30;4.60;;;-2.60;99.90;;;;;;5011328;28;20084;-81
2022/02/12 02:36:58;;;;;;;9.20;5.43;;;-2.60;99.90;;;;;;5011747;28;20018;-81
2022/02/12 02:39:24;;;;;;;13.17;5.30;;;-2.60;99.90;;;;;;5011432;28;20058;-81
2022/02/12 02:41:50;;;;;;;11.13;5.70;;;-2.60;99.90;;;;;;5011062;28;20026;-82
2022/02/12 02:44:15;;;;;;;8.83;4.77;;;-2.70;99.90;;;;;;5011655;28;20030;-82
2022/02/12 02:46:41;;;;;;;8.30;4.53;;;-2.70;99.90;;;;;;5011467;28;20057;-81
2022/02/12 02:49:07;;;;;;;8.47;4.77;;;-2.70;99.90;;;;;;5011652;28;20029;-82
2022/02/12 02:57:01;;;;;;;7.03;4.37;;;-2.70;99.90;;;;;;5011255;28;20600;-82
2022/02/12 02:59:26;;;;;;;9.77;5.43;;;-2.70;99.90;;;;;;5011198;28;20034;-81
2022/02/12 03:01:54;;;;;;;8.20;4.97;;;-2.70;99.90;;;;;;4993289;28;20404;-81
2022/02/12 03:04:21;;;;;;;10.70;5.37;;;-2.80;99.90;;;;;;4992410;28;20034;-81
2022/02/12 03:06:47;;;;;;;9.47;4.73;;;-2.80;99.90;;;;;;5004422;28;20519;-81
2022/02/12 03:09:12;;;;;;;8.57;4.60;;;-2.80;99.90;;;;;;4995278;28;20114;-81
2022/02/12 03:11:39;;;;;;;7.60;4.17;;;-2.80;99.90;;;;;;4992046;28;20043;-81
2022/02/12 03:14:05;;;;;;;10.27;5.30;;;-2.80;99.90;;;;;;4991668;28;20117;-81
2022/02/12 03:16:31;;;;;;;10.30;4.33;;;-2.80;99.90;;;;;;5001457;28;20065;-81
2022/02/12 03:18:57;;;;;;;11.57;4.87;;;-2.80;99.90;;;;;;5011111;28;20034;-81
2022/02/12 03:21:24;;;;;;;7.80;4.53;;;-2.80;99.90;;;;;;5011488;28;20471;-81
2022/02/12 03:23:50;;;;;;;8.73;4.53;;;-2.80;99.90;;;;;;5011015;28;20096;-82
2022/02/12 03:26:16;;;;;;;7.47;3.93;;;-2.80;99.90;;;;;;4993578;28;20116;-82
2022/02/12 03:28:43;;;;;;;6.93;4.67;;;-2.90;99.90;;;;;;5010959;28;20033;-82
2022/02/12 03:31:09;;;;;;;10.20;4.67;;;-2.90;99.90;;;;;;5011463;28;20502;-83
2022/02/12 03:33:35;;;;;;;8.53;4.80;;;-2.90;99.90;;;;;;4993724;28;20049;-82
2022/02/12 03:36:01;;;;;;;9.07;4.50;;;-2.90;99.90;;;;;;5011295;28;20038;-82
2022/02/12 03:38:29;;;;;;;10.83;4.70;;;-3.00;99.90;;;;;;5009951;28;20406;-82
2022/02/12 03:40:58;;;;;;;7.43;4.20;;;-3.00;99.90;;;;;;5011283;28;20541;-82
2022/02/12 03:43:25;;;;;;;10.37;5.30;;;-3.00;99.90;;;;;;5011330;28;20026;-82
2022/02/12 03:45:51;;;;;;;8.50;4.57;;;-3.00;99.90;;;;;;5011149;28;20712;-82
2022/02/12 03:48:17;;;;;;;8.90;4.50;;;-3.00;99.90;;;;;;5011184;28;20030;-82
2022/02/12 03:50:42;;;;;;;8.57;4.60;;;-3.00;99.90;;;;;;5011247;28;20091;-82
2022/02/12 03:53:08;;;;;;;10.07;4.87;;;-3.00;99.90;;;;;;5010958;28;20469;-82
2022/02/12 03:55:39;;;;;;;11.07;4.57;;;-3.00;99.90;;;;;;4993310;28;20463;-82
2022/02/12 03:58:06;;;;;;;7.83;4.70;;;-3.00;99.90;;;;;;5010859;28;20060;-82
2022/02/12 04:00:34;;;;;;;10.63;4.70;;;-3.10;99.90;;;;;;5008750;28;20776;-82
2022/02/12 04:03:00;;;;;;;9.50;4.50;;;-3.00;99.90;;;;;;5002483;28;20034;-82
2022/02/12 04:05:26;;;;;;;7.80;4.20;;;-3.10;99.90;;;;;;4998621;28;20136;-82
2022/02/12 04:07:52;;;;;;;9.43;4.60;;;-3.10;99.90;;;;;;5014918;28;20018;-82
2022/02/12 04:10:18;;;;;;;7.83;4.60;;;-3.10;99.90;;;;;;5014798;28;20486;-82
2022/02/12 04:12:45;;;;;;;9.43;4.30;;;-3.20;99.90;;;;;;5014607;28;20018;-82
2022/02/12 04:15:12;;;;;;;11.60;5.00;;;-3.20;99.90;;;;;;5014663;28;20093;-82
2022/02/12 04:17:38;;;;;;;11.13;5.07;;;-3.20;99.90;;;;;;5014291;28;20014;-82
2022/02/12 04:20:07;;;;;;;9.40;4.97;;;-3.30;99.90;;;;;;5013994;28;20422;-82
2022/02/12 04:22:34;;;;;;;7.40;4.30;;;-3.30;99.90;;;;;;5014405;28;20027;-82
2022/02/12 04:25:01;;;;;;;11.57;5.00;;;-3.30;99.90;;;;;;5014448;28;20030;-82
2022/02/12 04:27:27;;;;;;;10.23;4.90;;;-3.30;99.90;;;;;;4997079;28;20049;-82
2022/02/12 04:29:54;;;;;;;7.40;4.43;;;-3.30;99.90;;;;;;5014328;28;20022;-82
2022/02/12 04:32:20;;;;;;;7.87;4.73;;;-3.40;99.90;;;;;;5014144;28;20029;-82
2022/02/12 04:34:50;;;;;;;10.27;5.43;;;-3.30;99.90;;;;;;5014210;28;20025;-82
2022/02/12 04:37:18;;;;;;;9.77;4.80;;;-3.30;99.90;;;;;;5013963;28;20034;-82
2022/02/12 04:39:44;;;;;;;9.40;5.03;;;-3.30;99.90;;;;;;5013398;28;20091;-82
2022/02/12 04:42:11;;;;;;;10.07;4.77;;;-3.40;99.90;;;;;;5014077;28;20491;-82
2022/02/12 04:44:41;;;;;;;8.50;5.07;;;-3.40;99.90;;;;;;4995993;28;20092;-82
2022/02/12 04:47:08;;;;;;;11.33;5.40;;;-3.40;99.90;;;;;;5013701;28;20104;-82
2022/02/12 04:49:37;;;;;;;11.80;4.83;;;-3.40;99.90;;;;;;4996105;28;20365;-82
2022/02/12 04:52:05;;;;;;;8.37;5.10;;;-3.40;99.90;;;;;;5012892;28;20030;-82
2022/02/12 04:54:31;;;;;;;10.03;5.03;;;-3.40;99.90;;;;;;5013514;28;20032;-82
2022/02/12 04:56:57;;;;;;;7.80;5.30;;;-3.40;99.90;;;;;;5013991;28;20547;-82
2022/02/12 04:59:23;;;;;;;12.60;5.70;;;-3.40;99.90;;;;;;5013594;28;20375;-82
2022/02/12 05:01:51;;;;;;;12.33;5.70;;;-3.50;99.90;;;;;;5002460;28;20042;-82
2022/02/12 05:04:18;;;;;;;10.80;5.33;;;-3.40;99.90;;;;;;5011901;28;20025;-82
2022/02/12 05:06:44;;;;;;;8.13;4.80;;;-3.40;99.90;;;;;;5013853;28;20025;-82
2022/02/12 05:09:11;;;;;;;10.20;5.60;;;-3.50;99.90;;;;;;5012906;28;20030;-82
2022/02/12 05:11:38;;;;;;;9.17;4.93;;;-3.50;99.90;;;;;;4996299;28;20021;-82
2022/02/12 05:14:03;;;;;;;10.67;5.37;;;-3.50;99.90;;;;;;4995025;28;20025;-80
2022/02/12 05:16:29;;;;;;;10.13;4.73;;;-3.50;99.90;;;;;;5014524;28;20041;-79
2022/02/12 05:18:54;;;;;;;9.37;5.37;;;-3.50;99.90;;;;;;5014596;28;20494;-79
2022/02/12 05:21:20;;;;;;;6.30;4.63;;;-3.50;99.90;;;;;;5014728;28;20116;-79
2022/02/12 05:23:45;;;;;;;9.00;5.30;;;-3.60;99.90;;;;;;5014354;28;20037;-79
2022/02/12 05:26:11;;;;;;;8.47;5.30;;;-3.60;99.90;;;;;;5014538;28;20026;-79
2022/02/12 05:28:37;;;;;;;11.63;5.90;;;-3.60;99.90;;;;;;5014579;28;20072;-80
2022/02/12 05:31:03;;;;;;;11.80;5.10;;;-3.60;99.90;;;;;;5014170;28;20394;-79
2022/02/12 05:33:28;;;;;;;10.37;4.60;;;-3.60;99.90;;;;;;5013706;28;20088;-80
2022/02/12 05:35:54;;;;;;;11.33;5.00;;;-3.50;99.90;;;;;;5013451;28;20423;-79
2022/02/12 05:38:19;;;;;;;11.97;5.27;;;-3.60;99.90;;;;;;5013276;28;20137;-79
2022/02/12 05:40:45;;;;;;;9.83;5.50;;;-3.60;99.90;;;;;;5012556;28;20435;-79
2022/02/12 05:43:11;;;;;;;13.47;6.03;;;-3.70;99.90;;;;;;5009344;28;20022;-79
2022/02/12 05:45:36;;;;;;;12.53;6.50;;;-3.70;99.90;;;;;;5009750;28;20026;-79
2022/02/12 05:48:02;;;;;;;15.63;6.93;;;-3.70;99.90;;;;;;5004428;28;20145;-78
2022/02/12 05:50:29;;;;;;;10.40;6.90;;;-3.70;99.90;;;;;;5000397;28;20113;-77
2022/02/12 05:52:56;;;;;;;26.60;13.03;;;-3.70;99.90;;;;;;5007679;28;20342;-77
2022/02/12 05:55:21;;;;;;;20.20;9.57;;;-3.60;99.90;;;;;;5005057;28;20018;-78
2022/02/12 05:57:47;;;;;;;14.40;6.97;;;-3.60;99.90;;;;;;5013423;28;20022;-77
2022/02/12 06:00:13;;;;;;;21.40;12.40;;;-3.60;99.90;;;;;;5012893;28;20030;-77
2022/02/12 06:02:39;;;;;;;18.40;10.80;;;-3.60;99.90;;;;;;5006200;28;20044;-81
2022/02/12 06:05:05;;;;;;;20.00;9.63;;;-3.60;99.90;;;;;;5012460;28;20129;-78
2022/02/12 06:07:30;;;;;;;13.93;6.93;;;-3.60;99.90;;;;;;5012631;28;20051;-79
2022/02/12 06:09:56;;;;;;;12.10;7.70;;;-3.60;99.90;;;;;;5012774;28;20030;-86
2022/02/12 06:12:22;;;;;;;13.67;8.00;;;-3.50;99.90;;;;;;4996508;28;20022;-80
2022/02/12 06:14:47;;;;;;;38.03;21.57;;;-3.60;99.90;;;;;;5014641;28;20034;-79
2022/02/12 06:17:13;;;;;;;31.40;15.83;;;-3.60;99.90;;;;;;4996907;28;20033;-80
2022/02/12 06:19:38;;;;;;;33.57;15.57;;;-3.50;99.90;;;;;;5014525;28;20026;-78
2022/02/12 06:22:04;;;;;;;25.30;11.93;;;-3.50;99.90;;;;;;5013980;28;20334;-79
2022/02/12 06:24:29;;;;;;;25.33;12.77;;;-3.50;99.90;;;;;;5012381;28;20038;-75
2022/02/12 06:26:57;;;;;;;16.17;8.43;;;-3.50;99.90;;;;;;5014785;28;20025;-79
2022/02/12 06:29:25;;;;;;;11.83;6.57;;;-3.50;99.90;;;;;;5014774;28;20072;-79
2022/02/12 06:31:51;;;;;;;16.67;7.70;;;-3.50;99.90;;;;;;5014590;28;20024;-79
2022/02/12 06:34:18;;;;;;;12.80;7.90;;;-3.50;99.90;;;;;;5014330;28;20455;-79
2022/02/12 06:36:43;;;;;;;20.67;8.67;;;-3.50;99.90;;;;;;5014216;28;20449;-79
2022/02/12 06:39:09;;;;;;;12.43;8.07;;;-3.50;99.90;;;;;;4996639;28;20050;-79
2022/02/12 06:41:35;;;;;;;16.10;7.50;;;-3.50;99.90;;;;;;5014059;28;20030;-79
2022/02/12 06:44:01;;;;;;;16.83;7.87;;;-3.40;99.90;;;;;;5014361;28;20032;-79
2022/02/12 06:46:27;;;;;;;25.83;8.87;;;-3.40;99.90;;;;;;5014446;28;20109;-79
2022/02/12 06:48:52;;;;;;;18.33;9.13;;;-3.40;99.90;;;;;;5013880;28;20021;-79
2022/02/12 06:51:18;;;;;;;18.20;8.43;;;-3.40;99.90;;;;;;5014300;28;20454;-79
2022/02/12 06:53:44;;;;;;;15.73;7.07;;;-3.40;99.90;;;;;;5014123;28;20474;-79
2022/02/12 06:56:10;;;;;;;13.83;7.60;;;-3.30;99.90;;;;;;4996478;28;20026;-79
2022/02/12 06:58:35;;;;;;;15.00;8.30;;;-3.30;99.90;;;;;;5013805;28;20026;-78
2022/02/12 07:01:01;;;;;;;13.23;7.93;;;-3.30;99.90;;;;;;5014103;28;20022;-79
2022/02/12 07:03:27;;;;;;;15.83;7.23;;;-3.20;99.90;;;;;;5014071;28;20034;-79
2022/02/12 07:05:53;;;;;;;12.87;6.67;;;-3.20;99.90;;;;;;5012499;28;20083;-79
2022/02/12 07:08:18;;;;;;;13.20;7.23;;;-3.10;99.90;;;;;;5013985;28;20049;-79
2022/02/12 07:10:44;;;;;;;13.60;9.50;;;-3.10;99.90;;;;;;5013613;28;20022;-79
2022/02/12 07:13:12;;;;;;;17.90;10.13;;;-3.00;99.90;;;;;;5013700;28;20490;-79
2022/02/12 07:15:37;;;;;;;19.87;10.47;;;-3.00;99.90;;;;;;5013892;28;20109;-79
2022/02/12 07:18:03;;;;;;;13.73;7.53;;;-2.90;99.90;;;;;;5013639;28;20424;-79
2022/02/12 07:20:29;;;;;;;12.30;6.77;;;-2.80;99.90;;;;;;5013592;28;20407;-79
2022/02/12 07:22:55;;;;;;;12.53;6.67;;;-2.80;99.90;;;;;;5013446;28;20058;-79
2022/02/12 07:25:21;;;;;;;9.50;6.13;;;-2.70;99.90;;;;;;4995893;28;20108;-79
2022/02/12 07:27:47;;;;;;;10.40;6.10;;;-2.60;99.90;;;;;;5013252;28;20106;-79
2022/02/12 07:30:18;;;;;;;12.73;6.73;;;-2.50;99.90;;;;;;5012863;28;20022;-79
2022/02/12 07:32:44;;;;;;;13.80;6.60;;;-2.40;99.90;;;;;;5013039;28;20467;-79
2022/02/12 07:35:11;;;;;;;11.43;6.00;;;-2.20;99.90;;;;;;5012446;28;20065;-78
2022/02/12 07:37:42;;;;;;;13.60;6.07;;;-2.20;99.90;;;;;;4996350;28;20022;-78
2022/02/12 07:40:08;;;;;;;12.57;6.57;;;-2.10;99.90;;;;;;5013239;28;20510;-81
2022/02/12 07:42:34;;;;;;;10.87;6.40;;;-2.00;99.90;;;;;;5012018;28;20394;-81
2022/02/12 07:45:00;;;;;;;14.10;6.93;;;-1.90;99.90;;;;;;5011923;28;20523;-81
2022/02/12 07:47:25;;;;;;;11.10;7.03;;;-1.80;99.90;;;;;;5011493;28;20026;-81
2022/02/12 07:49:51;;;;;;;14.03;6.60;;;-1.70;99.90;;;;;;5011274;28;20390;-81
2022/02/12 07:52:18;;;;;;;16.17;6.80;;;-1.50;99.90;;;;;;5011591;28;20049;-82
2022/02/12 07:54:43;;;;;;;11.77;6.77;;;-1.30;99.90;;;;;;5012187;28;20029;-81
2022/02/12 07:57:09;;;;;;;10.90;6.33;;;-1.20;99.90;;;;;;5012105;28;20036;-81
2022/02/12 07:59:35;;;;;;;15.00;6.73;;;-1.10;99.90;;;;;;4993150;28;20026;-82
2022/02/12 08:02:00;;;;;;;11.90;7.17;;;-1.00;99.90;;;;;;5012659;28;20049;-79
2022/02/12 08:04:27;;;;;;;15.07;7.07;;;-0.80;99.90;;;;;;5016177;28;20030;-79
2022/02/12 08:09:37;;;;;;;9.90;5.77;;;-0.50;99.90;;;;;;5016430;28;20188;-79
2022/02/12 08:12:15;;;;;;;11.97;6.60;;;-0.40;99.90;;;;;;5015847;28;20097;-79
2022/02/12 08:14:47;;;;;;;12.97;5.90;;;-0.20;99.90;;;;;;5015894;28;20026;-79
2022/02/12 08:17:15;;;;;;;13.27;6.00;;;0.00;99.90;;;;;;5015751;28;20041;-79
2022/02/12 08:19:41;;;;;;;9.43;5.93;;;0.20;99.90;;;;;;5015712;28;20120;-79
2022/02/12 08:22:07;;;;;;;8.83;5.30;;;0.30;99.90;;;;;;5011862;28;20042;-81
2022/02/12 08:24:34;;;;;;;13.70;5.80;;;0.40;99.90;;;;;;5011404;28;20515;-81
2022/02/12 08:27:00;;;;;;;13.73;7.13;;;0.80;99.90;;;;;;5007387;28;20105;-81
2022/02/12 08:29:28;;;;;;;11.80;7.07;;;0.90;99.90;;;;;;5007146;28;20466;-79
2022/02/12 08:31:57;;;;;;;14.50;6.03;;;1.00;99.90;;;;;;4995290;28;20368;-79
2022/02/12 08:34:28;;;;;;;12.30;6.93;;;1.10;99.90;;;;;;5014535;28;20459;-79
2022/02/12 08:36:54;;;;;;;12.40;7.13;;;1.30;99.90;;;;;;5014272;28;20034;-79
2022/02/12 08:39:20;;;;;;;13.53;6.30;;;1.40;99.90;;;;;;5013748;28;20077;-79
2022/02/12 08:41:46;;;;;;;10.23;6.40;;;1.30;99.90;;;;;;5014665;28;20065;-79
2022/02/12 08:44:13;;;;;;;9.80;4.87;;;1.40;99.90;;;;;;5014396;28;20100;-79
2022/02/12 08:46:38;;;;;;;6.83;4.70;;;1.80;99.90;;;;;;5014601;28;20513;-79
2022/02/12 08:49:04;;;;;;;7.87;4.33;;;1.90;99.90;;;;;;5014259;28;20022;-79
2022/02/12 08:51:30;;;;;;;8.73;5.00;;;1.90;99.90;;;;;;5013985;28;20091;-79
2022/02/12 08:53:56;;;;;;;10.33;5.37;;;1.80;99.90;;;;;;5013810;28;20036;-79
2022/02/12 08:56:23;;;;;;;12.67;5.57;;;2.00;99.90;;;;;;4996426;28;20113;-79
2022/02/12 08:58:49;;;;;;;10.47;5.60;;;2.10;99.90;;;;;;4996514;28;20022;-79
2022/02/12 09:01:15;;;;;;;6.97;4.57;;;2.20;99.90;;;;;;5013815;28;20483;-79
2022/02/12 09:03:41;;;;;;;7.03;4.30;;;2.50;99.90;;;;;;5013781;28;20069;-79
2022/02/12 09:06:06;;;;;;;7.80;4.73;;;2.60;99.90;;;;;;5012475;28;20431;-79
2022/02/12 09:08:32;;;;;;;5.70;3.87;;;3.00;99.90;;;;;;5013161;28;20092;-79
2022/02/12 09:10:58;;;;;;;10.30;4.37;;;3.00;99.90;;;;;;5013429;28;20026;-79
2022/02/12 09:13:23;;;;;;;6.83;3.90;;;3.00;99.90;;;;;;5014706;28;20022;-81
2022/02/12 09:15:49;;;;;;;7.37;4.70;;;3.10;99.90;;;;;;5013699;28;20041;-80
2022/02/12 09:18:15;;;;;;;8.93;3.80;;;3.30;99.90;;;;;;5013304;28;20030;-79
2022/02/12 09:20:41;;;;;;;9.47;4.97;;;3.40;99.90;;;;;;5013109;28;20026;-79
2022/02/12 09:23:07;;;;;;;8.43;4.00;;;3.30;99.90;;;;;;5013244;28;20041;-81
2022/02/12 09:25:33;;;;;;;8.23;3.77;;;3.30;99.90;;;;;;5015194;28;20097;-81
2022/02/12 09:27:58;;;;;;;11.13;3.90;;;3.20;99.90;;;;;;5015493;28;20161;-82
2022/02/12 09:30:24;;;;;;;8.97;3.87;;;3.40;99.90;;;;;;5015378;28;20033;-79
2022/02/12 09:32:53;;;;;;;7.63;3.63;;;3.40;99.90;;;;;;5015051;28;20022;-80
2022/02/12 09:35:20;;;;;;;6.13;3.77;;;3.50;99.90;;;;;;5014102;28;20033;-77
2022/02/12 09:37:46;;;;;;;6.43;4.23;;;3.40;99.90;;;;;;5010870;28;20574;-81
2022/02/12 09:40:13;;;;;;;8.43;4.77;;;3.40;99.90;;;;;;5007696;28;20050;-81
2022/02/12 09:42:39;;;;;;;4.97;3.93;;;3.40;99.90;;;;;;5007898;28;20033;-81
2022/02/12 09:45:07;;;;;;;8.37;4.13;;;3.40;99.90;;;;;;5006607;28;20037;-79
2022/02/12 09:47:48;;;;;;;9.80;4.47;;;3.50;99.90;;;;;;5011146;28;20489;-79
2022/02/12 09:50:17;;;;;;;8.50;4.40;;;3.40;99.90;;;;;;5012091;28;20025;-76
2022/02/12 09:52:52;;;;;;;7.80;4.50;;;3.40;99.90;;;;;;5011800;28;20026;-77
2022/02/12 09:55:22;;;;;;;7.43;4.40;;;3.40;99.90;;;;;;5011012;28;20033;-76
2022/02/12 09:57:48;;;;;;;5.40;3.87;;;3.50;99.90;;;;;;5012280;28;20026;-75
2022/02/12 10:00:17;;;;;;;11.37;3.93;;;3.60;99.90;;;;;;5008895;28;20029;-76
2022/02/12 10:02:44;;;;;;;8.50;3.73;;;3.60;99.90;;;;;;5011836;28;20025;-75
2022/02/12 10:05:24;;;;;;;6.77;4.00;;;3.80;99.90;;;;;;5012052;28;20125;-76
2022/02/12 10:08:07;;;;;;;6.07;3.17;;;3.80;99.90;;;;;;5011766;28;20472;-75
2022/02/12 10:10:36;;;;;;;7.40;3.80;;;3.90;99.90;;;;;;5012117;28;20030;-76
2022/02/12 10:13:28;;;;;;;7.40;3.23;;;3.90;99.90;;;;;;5011812;28;20022;-76
2022/02/12 10:16:01;;;;;;;7.93;3.70;;;4.00;99.90;;;;;;4994530;28;20069;-76
2022/02/12 10:18:30;;;;;;;7.17;3.60;;;4.00;99.90;;;;;;5012068;28;20049;-76
2022/02/12 10:20:57;;;;;;;9.43;4.37;;;4.10;99.90;;;;;;5010506;28;20068;-76
2022/02/12 10:23:27;;;;;;;5.43;3.53;;;4.30;99.90;;;;;;5010055;28;20121;-76
2022/02/12 10:26:02;;;;;;;9.23;4.00;;;4.40;99.90;;;;;;5011918;28;20033;-76
2022/02/12 10:28:46;;;;;;;6.63;3.80;;;4.40;99.90;;;;;;5011188;28;20057;-76
2022/02/12 10:31:13;;;;;;;7.07;3.70;;;4.50;99.90;;;;;;5010277;28;20033;-76
2022/02/12 10:33:45;;;;;;;7.57;4.53;;;4.50;99.90;;;;;;5011302;28;20108;-76
2022/02/12 10:36:18;;;;;;;4.20;2.90;;;4.50;99.90;;;;;;5011289;28;20036;-75
2022/02/12 10:38:51;;;;;;;6.23;3.13;;;4.70;99.90;;;;;;4957449;28;1048210;-76
2022/02/12 10:41:19;;;;;;;6.73;3.40;;;4.80;99.90;;;;;;4994408;28;20030;-76
2022/02/12 10:43:48;;;;;;;6.03;3.20;;;4.90;99.90;;;;;;5012070;28;20030;-77
2022/02/12 10:46:15;;;;;;;5.90;2.13;;;5.00;99.90;;;;;;5011429;28;20037;-77
2022/02/12 10:48:41;;;;;;;4.33;2.40;;;5.20;99.90;;;;;;5011812;28;20021;-77
2022/02/12 10:51:15;;;;;;;9.50;4.37;;;5.40;99.90;;;;;;5011916;28;20097;-77
2022/02/12 10:53:59;;;;;;;6.27;3.10;;;5.60;99.90;;;;;;5011690;28;20034;-77
2022/02/12 10:56:43;;;;;;;18.67;7.53;;;5.60;99.90;;;;;;5012034;28;20029;-77
2022/02/12 10:59:10;;;;;;;9.50;4.50;;;5.90;99.90;;;;;;4974455;28;20038;-77
2022/02/12 11:01:36;;;;;;;22.10;10.03;;;6.00;99.90;;;;;;5001516;28;20639;-77
2022/02/12 11:04:02;;;;;;;26.03;10.67;;;6.10;99.90;;;;;;5011520;28;20042;-77
2022/02/12 11:06:28;;;;;;;37.53;15.00;;;6.10;99.90;;;;;;5011745;28;20040;-77
2022/02/12 11:08:53;;;;;;;32.10;12.60;;;6.30;99.90;;;;;;5011408;28;20018;-76
2022/02/12 11:11:19;;;;;;;31.40;11.97;;;6.30;99.90;;;;;;5011408;28;20018;-77
2022/02/12 11:13:46;;;;;;;18.07;6.10;;;6.30;99.90;;;;;;4993576;28;20049;-76
2022/02/12 11:16:11;;;;;;;40.50;14.93;;;6.30;99.90;;;;;;5011419;28;20030;-77
2022/02/12 11:18:39;;;;;;;8.47;4.10;;;6.40;99.90;;;;;;5011561;28;20063;-76
2022/02/12 11:21:05;;;;;;;7.20;3.40;;;6.50;99.90;;;;;;5011157;28;20038;-76
2022/02/12 11:23:32;;;;;;;19.07;7.53;;;6.70;99.90;;;;;;5011123;28;20053;-76
2022/02/12 11:26:03;;;;;;;16.43;7.13;;;6.80;99.90;;;;;;5011035;28;20029;-76
2022/02/12 11:28:30;;;;;;;32.50;13.63;;;6.80;99.90;;;;;;4993769;28;20052;-80
2022/02/12 11:31:24;;;;;;;20.43;10.70;;;6.80;99.90;;;;;;5013042;28;20048;-80
2022/02/12 11:34:10;;;;;;;13.53;6.33;;;6.80;99.90;;;;;;5010023;28;20129;-80
2022/02/12 11:36:38;;;;;;;10.60;4.40;;;6.80;99.90;;;;;;5012921;28;20061;-81
2022/02/12 11:39:11;;;;;;;15.20;6.83;;;6.90;99.90;;;;;;5004092;28;20058;-81
2022/02/12 11:41:39;;;;;;;14.27;5.43;;;7.00;99.90;;;;;;5012087;28;20030;-81
2022/02/12 11:44:06;;;;;;;10.07;4.83;;;6.90;99.90;;;;;;4994690;28;20030;-80
2022/02/12 11:46:42;;;;;;;9.07;3.43;;;7.10;99.90;;;;;;5012235;28;20036;-80
2022/02/12 11:49:27;;;;;;;9.77;4.73;;;7.00;99.90;;;;;;5012716;28;20025;-81
2022/02/12 11:51:54;;;;;;;24.13;11.30;;;7.30;99.90;;;;;;5012238;28;20060;-81
2022/02/12 11:54:45;;;;;;;8.37;4.00;;;7.40;99.90;;;;;;5012253;28;20113;-80
2022/02/12 11:57:14;;;;;;;7.53;2.80;;;7.40;99.90;;;;;;5012217;28;20491;-81
2022/02/12 11:59:40;;;;;;;17.63;8.97;;;7.40;99.90;;;;;;5012451;28;20037;-82
2022/02/12 12:02:06;;;;;;;22.97;14.37;;;7.70;99.90;;;;;;5012483;28;20374;-81
2022/02/12 12:04:33;;;;;;;8.30;5.57;;;8.00;99.90;;;;;;5012079;28;20026;-81
2022/02/12 12:07:10;;;;;;;6.87;3.83;;;8.20;99.90;;;;;;5012618;28;20060;-81
2022/02/12 12:10:05;;;;;;;6.03;2.77;;;8.10;99.90;;;;;;5012530;28;20018;-81
2022/02/12 12:12:31;;;;;;;4.07;2.40;;;8.10;99.90;;;;;;5012526;28;20022;-81
2022/02/12 12:15:21;;;;;;;6.43;4.13;;;8.10;99.90;;;;;;5012484;28;20097;-81
2022/02/12 12:17:58;;;;;;;4.30;2.43;;;8.10;99.90;;;;;;5012709;28;20033;-81
2022/02/12 12:20:36;;;;;;;5.27;2.37;;;7.90;99.90;;;;;;4994774;28;20041;-81
2022/02/12 12:23:09;;;;;;;3.97;2.10;;;7.90;99.90;;;;;;5012832;28;20026;-82
2022/02/12 12:26:02;;;;;;;5.70;2.03;;;7.80;99.90;;;;;;5015906;28;20026;-82
2022/02/12 12:28:38;;;;;;;4.57;2.87;;;7.80;99.90;;;;;;5014986;28;20700;-81
2022/02/12 12:31:10;;;;;;;4.73;2.03;;;8.10;99.90;;;;;;4997649;28;20090;-82
2022/02/12 12:33:40;;;;;;;3.33;2.03;;;8.10;99.90;;;;;;5015697;28;20026;-82
2022/02/12 12:36:12;;;;;;;3.77;1.87;;;8.30;99.90;;;;;;5015919;28;20363;-82
2022/02/12 12:38:49;;;;;;;5.77;2.00;;;8.50;99.80;;;;;;5015287;28;20515;-81
2022/02/12 12:41:32;;;;;;;4.43;2.00;;;8.30;99.90;;;;;;5015583;28;20076;-81
2022/02/12 12:44:16;;;;;;;5.17;2.60;;;8.60;99.50;;;;;;5015410;28;20030;-82
2022/02/12 12:46:47;;;;;;;9.97;1.90;;;8.60;99.20;;;;;;4997864;28;20030;-80
2022/02/12 12:49:34;;;;;;;4.53;2.10;;;8.70;97.80;;;;;;4997834;28;20022;-81
2022/02/12 12:52:01;;;;;;;5.60;2.27;;;8.70;98.50;;;;;;4997754;28;20025;-81
2022/02/12 12:54:39;;;;;;;4.20;2.40;;;8.50;99.60;;;;;;5015355;28;20525;-81